METAR Data
IDs: Format: Raw Decoded Include TAF

Data at: 2123 UTC 22 Sep 2020

KLSE 222053Z 18004KT 10SM CLR 27/16 A3005 RMK AO2 SLP165 T02720161 56020
KLSE 221953Z 00000KT 10SM CLR 27/16 A3006 RMK AO2 SLP171 T02670161
KLSE 221853Z 18005KT 10SM CLR 25/15 A3008 RMK AO2 SLP179 T02500150
KLSE 221753Z VRB04KT 10SM CLR 24/15 A3011 RMK AO2 SLP187 T02440150 10244 20156 58016
KLSE 221653Z 16004KT 10SM CLR 22/14 A3013 RMK AO2 SLP195 T02220139
KLSE 221553Z 18003KT 10SM CLR 20/13 A3014 RMK AO2 SLP200 T02000128
KLSE 221453Z 19006KT 10SM CLR 19/13 A3015 RMK AO2 SLP205 T01890128 51002
KLSE 221353Z 17005KT 10SM CLR 17/12 A3015 RMK AO2 SLP205 T01720122
KLSE 221253Z 16006KT 10SM CLR 16/12 A3015 RMK AO2 SLP206 T01610122
KLSE 221153Z 16006KT 10SM CLR 16/12 A3015 RMK AO2 SLP203 60001 70001 T01560117 10183 20150 53001
KLSE 221053Z 16006KT 10SM CLR 16/12 A3015 RMK AO2 SLP204 T01560117
KLSE 220953Z AUTO 16006KT 10SM CLR 16/11 A3014 RMK AO2 SLP199 T01610111
KLSE 220853Z AUTO 16009KT 10SM FEW120 17/12 A3014 RMK AO2 RAB0754E04 TSE03 SLP201 P0000 60001 T01670117 58004
KLSE 220809Z AUTO 14004KT 10SM FEW100 BKN120 17/12 A3015 RMK AO2 RAB0754E04 TSE03 P0000 T01670122
KLSE 220753Z AUTO 16005KT 10SM TS FEW055 FEW100 SCT120 17/12 A3016 RMK AO2 RAB21E33 TSB48 SLP205 P0001 T01720122
KLSE 220748Z AUTO 15004KT 10SM TS FEW100 SCT120 18/12 A3016 RMK AO2 RAB21E33 TSB48 P0001
KLSE 220653Z AUTO 16005KT 10SM CLR 18/11 A3016 RMK AO2 SLP205 T01780106
KLSE 220553Z AUTO VRB04KT 10SM CLR 18/11 A3016 RMK AO2 SLP206 T01780106 10222 20178 402440128 51006
KLSE 220453Z AUTO 16006KT 10SM CLR 18/11 A3016 RMK AO2 SLP205 T01830111
KLSE 220353Z AUTO 16006KT 10SM CLR 19/11 A3015 RMK AO2 SLP203 T01890111
KLSE 220253Z AUTO 16008KT 10SM CLR 19/11 A3014 RMK AO2 SLP202 T01940111 53009
KLSE 220153Z 16009KT 10SM CLR 19/12 A3013 RMK AO2 SLP197 T01940117
KLSE 220053Z 16007KT 10SM CLR 21/11 A3012 RMK AO2 SLP196 T02060111
KLSE 212353Z 15010KT 10SM CLR 22/12 A3011 RMK AO2 SLP193 T02220122 10244 20222 56009
KLSE 212253Z 16010KT 10SM FEW120 23/13 A3012 RMK AO2 SLP196 T02280128
KLSE 212153Z 17010KT 10SM CLR 24/13 A3013 RMK AO2 SLP197 T02390133
KLSE 212053Z 17012KT 10SM CLR 24/13 A3014 RMK AO2 SLP201 T02440128 56024
KLSE 211953Z 17014G22KT 10SM CLR 24/12 A3017 RMK AO2 SLP210 T02390122
KLSE 211853Z 17015G21KT 10SM CLR 23/12 A3019 RMK AO2 SLP217 T02330117
KLSE 211753Z 17012KT 10SM CLR 22/11 A3021 RMK AO2 SLP226 T02220106 10222 20133 58018
KLSE 211653Z 17010KT 10SM CLR 21/09 A3024 RMK AO2 SLP233 T02110094
KLSE 211553Z 17009KT 10SM CLR 19/08 A3026 RMK AO2 SLP241 T01890083
KLSE 211453Z 17012KT 10SM CLR 16/07 A3027 RMK AO2 SLP246 T01610067 58000
KLSE 211353Z 17009KT 10SM CLR 16/07 A3027 RMK AO2 SLP247 T01560067
KLSE 211253Z 16010KT 10SM CLR 14/07 A3027 RMK AO2 SLP248 T01390072
KLSE 211153Z 15008KT 10SM CLR 13/07 A3027 RMK AO2 SLP247 T01280067 10150 20128 53004
KLSE 211053Z 15009KT 10SM CLR 13/07 A3026 RMK AO2 SLP244 T01330067
KLSE 210953Z AUTO 10006KT 10SM CLR 13/07 A3025 RMK AO2 SLP241 T01330072